Time;durP1;ratioP1;P1;durP2;ratioP2;P2;SDS_P1;SDS_P2;PMS_P1;PMS_P2;Temp;Humidity;BMP_temperature;BMP_pressure;BME280_temperature;BME280_humidity;BME280_pressure;Samples;Min_cycle;Max_cycle;Signal;HPM_P1;HPM_P2
2021/03/07 00:00:37;;;;;;;5.13;1.92;;;-2.20;99.90;;;;;;5028519;28;20049;-82
2021/03/07 00:03:03;;;;;;;5.15;2.00;;;-2.10;99.90;;;;;;5031870;28;20037;-81
2021/03/07 00:05:49;;;;;;;6.65;1.95;;;-2.20;99.90;;;;;;5048381;28;20063;-82
2021/03/07 00:08:15;;;;;;;6.63;1.50;;;-2.30;99.90;;;;;;4987802;28;20654;-81
2021/03/07 00:10:40;;;;;;;5.15;1.85;;;-2.30;99.90;;;;;;4968687;28;20362;-81
2021/03/07 00:13:06;;;;;;;6.22;2.25;;;-2.20;99.90;;;;;;4984915;28;20054;-81
2021/03/07 00:15:32;;;;;;;4.88;1.92;;;-2.20;99.90;;;;;;4966833;28;20050;-81
2021/03/07 00:17:57;;;;;;;4.95;2.22;;;-2.20;99.90;;;;;;4984634;28;20144;-81
2021/03/07 00:20:23;;;;;;;5.68;2.25;;;-2.20;99.90;;;;;;4952592;28;20055;-82
2021/03/07 00:22:49;;;;;;;6.90;2.45;;;-2.20;99.90;;;;;;4957572;28;20118;-81
2021/03/07 00:25:17;;;;;;;4.57;2.47;;;-2.20;99.90;;;;;;4968245;28;20054;-81
2021/03/07 00:27:43;;;;;;;6.22;2.17;;;-2.20;99.90;;;;;;4952321;28;20055;-82
2021/03/07 00:30:13;;;;;;;5.90;2.28;;;-2.20;99.90;;;;;;4952503;28;20074;-82
2021/03/07 00:32:39;;;;;;;7.72;3.45;;;-2.20;99.90;;;;;;4952290;28;20066;-81
2021/03/07 00:35:06;;;;;;;7.25;2.50;;;-2.10;99.90;;;;;;4952230;28;20047;-81
2021/03/07 00:37:32;;;;;;;9.52;2.50;;;-2.10;99.90;;;;;;4954040;28;20110;-81
2021/03/07 00:39:57;;;;;;;6.38;2.58;;;-2.20;99.90;;;;;;4952111;28;20043;-81
2021/03/07 00:42:23;;;;;;;8.45;2.33;;;-1.90;99.90;;;;;;4952144;28;20046;-81
2021/03/07 00:44:49;;;;;;;6.22;2.75;;;-1.90;99.90;;;;;;4975701;28;20033;-82
2021/03/07 00:47:15;;;;;;;7.38;2.95;;;-2.00;99.90;;;;;;5045694;28;20041;-82
2021/03/07 00:49:41;;;;;;;5.22;2.40;;;-2.00;99.90;;;;;;5054132;28;20030;-81
2021/03/07 00:52:07;;;;;;;4.25;2.10;;;-2.10;99.90;;;;;;5051514;28;20040;-82
2021/03/07 00:54:33;;;;;;;7.18;2.53;;;-2.30;99.90;;;;;;5070812;28;20507;-81
2021/03/07 00:56:58;;;;;;;7.25;2.42;;;-2.20;99.90;;;;;;5054210;28;20059;-81
2021/03/07 00:59:24;;;;;;;6.10;1.92;;;-2.20;99.90;;;;;;5054243;28;20075;-80
2021/03/07 01:01:50;;;;;;;7.82;2.17;;;-2.20;99.90;;;;;;5054066;28;20548;-81
2021/03/07 01:04:16;;;;;;;6.47;2.30;;;-2.30;99.90;;;;;;5035934;28;20033;-81
2021/03/07 01:06:42;;;;;;;4.55;2.13;;;-2.20;99.90;;;;;;5054057;28;20434;-81
2021/03/07 01:09:08;;;;;;;4.72;1.63;;;-2.30;99.90;;;;;;5054127;28;20049;-82
2021/03/07 01:11:34;;;;;;;5.10;1.95;;;-2.30;99.90;;;;;;5054115;28;20040;-81
2021/03/07 01:14:00;;;;;;;5.30;1.77;;;-2.40;99.90;;;;;;5054017;28;20036;-81
2021/03/07 01:16:26;;;;;;;9.90;2.25;;;-2.40;99.90;;;;;;5037326;28;20041;-81
2021/03/07 01:18:51;;;;;;;3.40;1.67;;;-2.30;99.90;;;;;;5037321;28;20041;-81
2021/03/07 01:21:17;;;;;;;6.00;1.77;;;-2.30;99.90;;;;;;5054074;28;20131;-81
2021/03/07 01:23:43;;;;;;;6.85;2.33;;;-2.40;99.90;;;;;;5053854;28;20048;-80
2021/03/07 01:26:09;;;;;;;7.82;2.22;;;-2.50;99.90;;;;;;5053921;28;20041;-82
2021/03/07 01:28:35;;;;;;;4.93;1.52;;;-2.50;99.90;;;;;;5037440;28;20110;-82
2021/03/07 01:31:01;;;;;;;6.78;2.63;;;-2.50;99.90;;;;;;5053917;28;20133;-82
2021/03/07 01:33:27;;;;;;;4.50;1.50;;;-2.60;99.90;;;;;;5054003;28;20061;-82
2021/03/07 01:35:52;;;;;;;6.85;1.48;;;-2.50;99.90;;;;;;5037362;28;20044;-81
2021/03/07 01:38:18;;;;;;;9.00;2.28;;;-2.60;99.90;;;;;;5037427;28;20066;-81
2021/03/07 01:40:48;;;;;;;6.70;2.28;;;-2.60;99.90;;;;;;5037294;28;20053;-82
2021/03/07 01:43:16;;;;;;;6.13;1.58;;;-2.50;99.90;;;;;;5070477;28;20048;-82
2021/03/07 01:45:42;;;;;;;6.65;1.92;;;-2.60;99.90;;;;;;5053698;28;20045;-82
2021/03/07 01:48:09;;;;;;;5.65;2.03;;;-2.70;99.90;;;;;;5053722;28;20139;-82
2021/03/07 01:50:37;;;;;;;4.95;1.77;;;-2.70;99.90;;;;;;5053861;28;20049;-81
2021/03/07 01:53:03;;;;;;;6.18;2.33;;;-2.70;99.90;;;;;;5037244;28;20060;-81
2021/03/07 01:55:32;;;;;;;5.43;1.65;;;-2.60;99.90;;;;;;5053813;28;20025;-82
2021/03/07 01:58:09;;;;;;;4.68;2.00;;;-2.70;99.90;;;;;;5037313;28;20040;-82
2021/03/07 02:00:35;;;;;;;6.32;2.03;;;-2.70;99.90;;;;;;5053612;28;20085;-83
2021/03/07 02:03:01;;;;;;;7.00;1.92;;;-2.70;99.90;;;;;;5052439;28;20044;-82
2021/03/07 02:05:48;;;;;;;6.15;2.30;;;-2.80;99.90;;;;;;5050539;28;20045;-82
2021/03/07 02:08:15;;;;;;;7.35;2.10;;;-2.70;99.90;;;;;;5050968;23;20053;-82
2021/03/07 02:10:45;;;;;;;8.05;2.00;;;-2.80;99.90;;;;;;5071003;28;20050;-81
2021/03/07 02:13:15;;;;;;;5.13;2.20;;;-2.80;99.90;;;;;;5070715;28;20032;-81
2021/03/07 02:15:44;;;;;;;6.43;1.83;;;-2.80;99.90;;;;;;5067360;28;20063;-81
2021/03/07 02:18:11;;;;;;;7.13;2.03;;;-2.80;99.90;;;;;;5050881;28;20044;-82
2021/03/07 02:20:47;;;;;;;3.95;1.70;;;-2.90;99.90;;;;;;5050515;28;20120;-81
2021/03/07 02:23:17;;;;;;;7.22;1.58;;;-2.90;99.90;;;;;;5050723;28;20052;-81
2021/03/07 02:25:43;;;;;;;5.05;1.80;;;-3.00;99.90;;;;;;5050748;28;20033;-81
2021/03/07 02:28:10;;;;;;;5.95;2.50;;;-3.00;99.90;;;;;;5050585;28;20072;-81
2021/03/07 02:30:36;;;;;;;4.95;2.00;;;-3.10;99.90;;;;;;5067174;28;20045;-81
2021/03/07 02:33:14;;;;;;;4.70;1.98;;;-3.00;99.90;;;;;;5050487;28;20072;-82
2021/03/07 02:35:46;;;;;;;5.32;1.95;;;-3.00;99.90;;;;;;5050554;28;20122;-82
2021/03/07 02:38:16;;;;;;;5.67;1.67;;;-3.00;99.90;;;;;;5050605;28;20037;-82
2021/03/07 02:40:42;;;;;;;4.97;2.20;;;-3.00;99.90;;;;;;5068094;28;20053;-80
2021/03/07 02:43:13;;;;;;;4.10;1.90;;;-3.10;99.90;;;;;;5050160;28;20041;-80
2021/03/07 02:45:39;;;;;;;;;;;-3.00;99.90;;;;;;5068411;28;20052;-82
2021/03/07 02:48:08;;;;;;;5.07;1.75;;;-3.10;99.90;;;;;;5049864;28;19909;-81
2021/03/07 02:50:34;;;;;;;3.80;1.45;;;-3.10;99.90;;;;;;5049636;28;20127;-82
2021/03/07 02:53:07;;;;;;;4.97;1.63;;;-3.20;99.90;;;;;;5049710;28;20048;-81
2021/03/07 02:55:35;;;;;;;7.13;1.95;;;-3.20;99.90;;;;;;5033395;28;20040;-83
2021/03/07 02:58:10;;;;;;;5.30;2.10;;;-3.20;99.90;;;;;;5049885;28;20052;-82
2021/03/07 03:00:37;;;;;;;6.60;2.00;;;-3.10;99.90;;;;;;5049534;28;20068;-82
2021/03/07 03:03:08;;;;;;;5.60;1.87;;;-3.10;99.90;;;;;;5067472;28;20048;-82
2021/03/07 03:06:14;;;;;;;6.55;2.42;;;-3.20;99.90;;;;;;5032922;28;20072;-82
2021/03/07 03:08:41;;;;;;;4.97;2.20;;;-3.20;99.90;;;;;;4912240;29;20059;-81
2021/03/07 03:11:08;;;;;;;6.00;2.07;;;-3.20;99.90;;;;;;4912627;29;20073;-81
2021/03/07 03:13:36;;;;;;;7.33;2.23;;;-3.10;99.90;;;;;;4896534;29;20048;-81
2021/03/07 03:16:05;;;;;;;6.03;2.50;;;-3.20;99.90;;;;;;4927636;29;20056;-81
2021/03/07 03:18:33;;;;;;;5.73;2.67;;;-3.20;99.90;;;;;;4912539;29;20040;-82
2021/03/07 03:21:01;;;;;;;8.05;2.70;;;-3.30;99.90;;;;;;4912271;29;20165;-81
2021/03/07 03:23:27;;;;;;;6.93;2.20;;;-3.30;99.90;;;;;;4912371;29;20048;-80
2021/03/07 03:25:52;;;;;;;4.23;1.87;;;-3.50;99.90;;;;;;4896571;29;20047;-82
2021/03/07 03:28:23;;;;;;;5.95;2.00;;;-3.50;99.90;;;;;;4928112;29;20036;-81
2021/03/07 03:30:50;;;;;;;5.03;2.35;;;-3.40;99.90;;;;;;4896749;29;20148;-81
2021/03/07 03:33:16;;;;;;;6.97;2.50;;;-3.40;99.90;;;;;;4911964;29;20048;-81
2021/03/07 03:35:41;;;;;;;6.07;2.57;;;-3.40;99.90;;;;;;4912369;29;20051;-82
2021/03/07 03:38:07;;;;;;;5.97;2.37;;;-3.30;99.90;;;;;;4911947;29;20083;-82
2021/03/07 03:40:34;;;;;;;6.60;2.13;;;-3.40;99.90;;;;;;4912038;29;20075;-81
2021/03/07 03:43:06;;;;;;;4.33;2.03;;;-3.40;99.90;;;;;;4927752;29;20104;-81
2021/03/07 03:45:35;;;;;;;5.10;1.97;;;-3.40;99.90;;;;;;4967479;28;20040;-81
2021/03/07 03:48:04;;;;;;;4.80;2.27;;;-3.40;99.90;;;;;;5048460;28;20037;-82
2021/03/07 03:50:31;;;;;;;9.20;3.53;;;-3.40;99.90;;;;;;5058865;28;20047;-81
2021/03/07 03:53:01;;;;;;;4.07;1.93;;;-3.50;99.90;;;;;;5051712;28;20047;-81
2021/03/07 03:55:29;;;;;;;5.50;2.13;;;-3.60;99.90;;;;;;5051849;28;20072;-82
2021/03/07 03:58:03;;;;;;;6.13;2.67;;;-3.60;99.90;;;;;;5051692;28;20040;-81
2021/03/07 04:00:30;;;;;;;8.38;3.05;;;-3.50;99.90;;;;;;5068281;28;20049;-81
2021/03/07 04:02:58;;;;;;;7.80;3.63;;;-3.60;99.90;;;;;;5068012;28;20028;-81
2021/03/07 04:05:45;;;;;;;8.00;3.00;;;-3.60;99.90;;;;;;5051563;28;20040;-81
2021/03/07 04:08:12;;;;;;;9.63;3.60;;;-3.70;99.90;;;;;;4968504;28;20050;-81
2021/03/07 04:10:40;;;;;;;9.20;3.40;;;-3.60;99.90;;;;;;4968679;28;20039;-81
2021/03/07 04:13:07;;;;;;;9.13;3.47;;;-3.40;99.90;;;;;;4968478;28;20043;-82
2021/03/07 04:15:33;;;;;;;7.67;3.37;;;-3.50;99.90;;;;;;4968535;28;20043;-81
2021/03/07 04:17:59;;;;;;;10.53;3.80;;;-3.50;99.90;;;;;;4952837;28;20039;-82
2021/03/07 04:20:26;;;;;;;11.70;4.25;;;-3.50;99.90;;;;;;4952363;28;20111;-82
2021/03/07 04:22:52;;;;;;;9.17;4.10;;;-3.50;99.90;;;;;;4952376;28;20101;-82
2021/03/07 04:25:18;;;;;;;15.00;5.40;;;-3.50;99.90;;;;;;4968508;28;20038;-82
2021/03/07 04:27:44;;;;;;;11.37;3.53;;;-3.60;99.90;;;;;;4967753;28;20038;-82
2021/03/07 04:30:11;;;;;;;9.83;3.50;;;-3.70;99.90;;;;;;4984638;28;20050;-80
2021/03/07 04:32:38;;;;;;;11.97;4.43;;;-3.70;99.90;;;;;;4952160;28;20130;-81
2021/03/07 04:35:04;;;;;;;11.13;3.97;;;-3.70;99.90;;;;;;4952431;28;20039;-81
2021/03/07 04:37:30;;;;;;;12.10;4.03;;;-3.60;99.90;;;;;;4952271;28;20054;-81
2021/03/07 04:39:56;;;;;;;11.27;3.30;;;-3.70;99.90;;;;;;4968372;28;20055;-81
2021/03/07 04:42:23;;;;;;;7.93;3.63;;;-3.60;99.90;;;;;;4952129;28;20155;-82
2021/03/07 04:44:49;;;;;;;8.80;3.40;;;-3.60;99.90;;;;;;4984632;28;20036;-82
2021/03/07 04:47:14;;;;;;;7.70;2.90;;;-3.60;99.90;;;;;;5051014;28;20110;-82
2021/03/07 04:49:40;;;;;;;9.43;3.20;;;-3.50;99.90;;;;;;5047561;28;20037;-82
2021/03/07 04:52:06;;;;;;;9.90;4.00;;;-3.60;99.90;;;;;;5031239;28;20041;-82
2021/03/07 04:54:32;;;;;;;7.73;3.03;;;-3.50;99.90;;;;;;5031250;28;20052;-81
2021/03/07 04:57:00;;;;;;;13.73;4.07;;;-3.50;99.90;;;;;;5031085;28;20037;-82
2021/03/07 04:59:26;;;;;;;8.60;4.00;;;-3.40;99.90;;;;;;5030988;28;20044;-81
2021/03/07 05:01:52;;;;;;;8.87;3.80;;;-3.50;99.90;;;;;;5031131;28;20052;-82
2021/03/07 05:04:18;;;;;;;10.37;3.80;;;-3.60;99.90;;;;;;5031064;28;20412;-81
2021/03/07 05:06:43;;;;;;;13.43;4.33;;;-3.60;99.90;;;;;;5065420;28;20053;-81
2021/03/07 05:09:10;;;;;;;15.50;5.10;;;-3.60;99.90;;;;;;5030717;28;20041;-81
2021/03/07 05:11:38;;;;;;;18.80;5.77;;;-3.50;99.90;;;;;;5047476;28;20040;-82
2021/03/07 05:14:05;;;;;;;16.43;4.90;;;-3.50;99.90;;;;;;5047757;28;20037;-82
2021/03/07 05:16:30;;;;;;;13.63;4.37;;;-3.50;99.90;;;;;;5076329;28;20059;-82
2021/03/07 05:18:56;;;;;;;12.47;4.00;;;-3.60;99.90;;;;;;5050612;28;20496;-82
2021/03/07 05:21:23;;;;;;;11.40;4.25;;;-3.60;99.90;;;;;;5067226;28;20044;-82
2021/03/07 05:23:50;;;;;;;10.60;4.77;;;-3.60;99.90;;;;;;5050784;28;20089;-82
2021/03/07 05:26:16;;;;;;;10.83;4.10;;;-3.70;99.90;;;;;;5067489;28;20037;-81
2021/03/07 05:28:43;;;;;;;10.27;4.20;;;-3.60;99.90;;;;;;5050852;28;20115;-81
2021/03/07 05:31:08;;;;;;;10.77;4.20;;;-3.60;99.90;;;;;;5067327;28;20052;-82
2021/03/07 05:33:34;;;;;;;12.10;4.50;;;-3.60;99.90;;;;;;5067357;28;20033;-82
2021/03/07 05:35:59;;;;;;;13.73;4.37;;;-3.60;99.90;;;;;;5085208;28;20032;-81
2021/03/07 05:38:25;;;;;;;10.73;4.63;;;-3.70;99.90;;;;;;5069434;28;20036;-82
2021/03/07 05:40:51;;;;;;;10.87;4.27;;;-3.70;99.90;;;;;;5054516;28;20507;-82
2021/03/07 05:43:18;;;;;;;12.43;4.27;;;-3.60;99.90;;;;;;5070935;28;20040;-82
2021/03/07 05:45:46;;;;;;;0.00;0.00;;;-3.50;99.90;;;;;;5071140;28;20067;-82
2021/03/07 05:48:12;;;;;;;0.53;0.53;;;-3.60;99.90;;;;;;5054067;28;20041;-81
2021/03/07 05:50:37;;;;;;;0.47;0.47;;;-3.60;99.90;;;;;;5050775;28;20067;-81
2021/03/07 05:53:03;;;;;;;0.00;0.00;;;-3.50;99.90;;;;;;5034431;28;20472;-81
2021/03/07 05:55:30;;;;;;;0.00;0.00;;;-3.40;99.90;;;;;;5050736;28;20051;-81
2021/03/07 05:58:00;;;;;;;0.00;0.00;;;-3.30;99.90;;;;;;5050809;28;20100;-82
2021/03/07 06:00:26;;;;;;;;;;;-3.20;99.90;;;;;;5050886;28;20116;-81
2021/03/07 06:02:52;;;;;;;0.77;0.63;;;-3.20;99.90;;;;;;5050652;28;19916;-81
2021/03/07 06:05:18;;;;;;;0.20;0.20;;;-3.20;99.90;;;;;;5050495;28;20037;-82
2021/03/07 06:07:49;;;;;;;0.00;0.00;;;-3.20;99.90;;;;;;5050558;28;20511;-80
2021/03/07 06:10:20;;;;;;;;;;;-3.10;99.90;;;;;;5050894;28;20056;-81
2021/03/07 06:13:10;;;;;;;0.00;0.00;;;-3.10;99.90;;;;;;5050393;28;19915;-82
2021/03/07 06:15:41;;;;;;;0.00;0.00;;;-2.90;99.90;;;;;;5055867;28;20043;-82
2021/03/07 06:18:21;;;;;;;0.00;0.00;;;-3.00;99.90;;;;;;5070360;28;20051;-81
2021/03/07 06:20:50;;;;;;;0.00;0.00;;;-2.90;99.90;;;;;;5053601;28;20106;-82
2021/03/07 06:23:16;;;;;;;0.00;0.00;;;-2.80;99.90;;;;;;5053531;28;20074;-81
2021/03/07 06:25:47;;;;;;;0.00;0.00;;;-2.80;99.90;;;;;;5053292;28;20283;-82
2021/03/07 06:28:21;;;;;;;0.00;0.00;;;-2.70;99.90;;;;;;5053009;28;20036;-82
2021/03/07 06:30:47;;;;;;;0.00;0.00;;;-2.60;99.90;;;;;;5052786;28;20492;-82
2021/03/07 06:33:31;;;;;;;0.00;0.00;;;-2.70;99.90;;;;;;5069495;28;20050;-82
2021/03/07 06:36:17;;;;;;;0.00;0.00;;;-2.70;99.90;;;;;;5052767;28;20098;-82
2021/03/07 06:38:48;;;;;;;0.00;0.00;;;-2.50;99.90;;;;;;5052832;28;20106;-82
2021/03/07 06:41:15;;;;;;;0.00;0.00;;;-2.40;99.90;;;;;;5052422;28;20048;-81
2021/03/07 06:43:41;;;;;;;0.00;0.00;;;-2.40;99.90;;;;;;5069389;28;20119;-82
2021/03/07 06:46:06;;;;;;;0.00;0.00;;;-2.40;99.90;;;;;;5069130;28;20044;-82
2021/03/07 06:48:35;;;;;;;0.00;0.00;;;-2.40;99.90;;;;;;5052295;28;20036;-82
2021/03/07 06:51:01;;;;;;;1.98;1.88;;;-2.30;99.90;;;;;;5068440;28;20053;-82
2021/03/07 06:53:35;;;;;;;0.00;0.00;;;-2.10;99.90;;;;;;5085679;28;20036;-82
2021/03/07 06:56:01;;;;;;;0.00;0.00;;;-2.00;99.90;;;;;;5085637;28;20041;-81
2021/03/07 06:58:27;;;;;;;0.00;0.00;;;-2.00;99.90;;;;;;5085681;28;20510;-82
2021/03/07 07:00:53;;;;;;;0.00;0.00;;;-2.00;99.90;;;;;;5084080;28;20078;-82
2021/03/07 07:03:19;;;;;;;0.00;0.00;;;-1.90;99.90;;;;;;5051088;28;20037;-82
2021/03/07 07:05:47;;;;;;;0.00;0.00;;;-1.80;99.90;;;;;;5052187;28;20045;-81
2021/03/07 07:08:14;;;;;;;0.00;0.00;;;-1.80;99.90;;;;;;5048634;28;20045;-82
2021/03/07 07:10:55;;;;;;;0.00;0.00;;;-1.80;99.90;;;;;;5064965;28;20068;-82
2021/03/07 07:13:28;;;;;;;0.00;0.00;;;-1.60;99.90;;;;;;5048775;28;20043;-81
2021/03/07 07:16:02;;;;;;;0.00;0.00;;;-1.60;99.90;;;;;;5065275;28;20057;-82
2021/03/07 07:18:30;;;;;;;0.00;0.00;;;-1.50;99.90;;;;;;5049110;28;20051;-83
2021/03/07 07:20:56;;;;;;;0.00;0.00;;;-1.50;99.90;;;;;;5032223;28;20167;-83
2021/03/07 07:23:23;;;;;;;0.00;0.00;;;-1.30;99.90;;;;;;5032205;28;20128;-82
2021/03/07 07:25:49;;;;;;;0.00;0.00;;;-1.30;99.90;;;;;;5032071;28;20040;-83
2021/03/07 07:28:15;;;;;;;0.00;0.00;;;-1.20;99.90;;;;;;5048503;28;20128;-83
2021/03/07 07:30:41;;;;;;;0.03;0.03;;;-1.10;99.90;;;;;;5048721;28;20032;-84
2021/03/07 07:33:14;;;;;;;0.00;0.00;;;-1.10;99.90;;;;;;5037795;28;20040;-83
2021/03/07 07:35:42;;;;;;;1.27;1.08;;;-1.00;99.90;;;;;;5064926;28;20041;-84
2021/03/07 07:38:11;;;;;;;0.00;0.00;;;-1.00;99.90;;;;;;5048653;28;20045;-83
2021/03/07 07:40:39;;;;;;;0.00;0.00;;;-0.90;99.90;;;;;;5048036;28;20067;-83
2021/03/07 07:43:05;;;;;;;0.00;0.00;;;-0.80;99.90;;;;;;5047055;28;20071;-83
2021/03/07 07:45:31;;;;;;;0.08;0.08;;;-0.80;99.90;;;;;;5039867;28;20075;-82
2021/03/07 07:47:57;;;;;;;0.00;0.00;;;-0.70;99.90;;;;;;5048045;28;20057;-83
2021/03/07 07:50:29;;;;;;;0.00;0.00;;;-0.60;99.90;;;;;;5065768;28;20052;-84
2021/03/07 07:53:06;;;;;;;0.00;0.00;;;-0.60;99.90;;;;;;5060274;28;20037;-84
2021/03/07 07:56:01;;;;;;;0.00;0.00;;;-0.50;99.90;;;;;;5047844;28;20049;-83
2021/03/07 07:58:36;;;;;;;0.00;0.00;;;-0.50;99.90;;;;;;5021396;28;20040;-84
2021/03/07 08:01:06;;;;;;;0.00;0.00;;;-0.40;99.90;;;;;;5064403;28;20052;-85
2021/03/07 08:03:37;;;;;;;0.00;0.00;;;-0.30;99.90;;;;;;5064482;28;20129;-84
2021/03/07 08:06:29;;;;;;;0.00;0.00;;;-0.20;99.90;;;;;;5065564;28;20044;-84
2021/03/07 08:08:56;;;;;;;0.00;0.00;;;-0.10;99.90;;;;;;5036654;28;20053;-84
2021/03/07 08:11:24;;;;;;;0.25;0.25;;;-0.10;99.90;;;;;;5047329;28;20033;-83
2021/03/07 08:14:00;;;;;;;0.00;0.00;;;0.00;99.90;;;;;;5031119;28;20025;-84
2021/03/07 08:16:43;;;;;;;0.00;0.00;;;0.00;99.90;;;;;;5029566;28;20049;-84
2021/03/07 08:19:14;;;;;;;0.00;0.00;;;0.10;99.90;;;;;;5031247;28;20045;-84
2021/03/07 08:22:03;;;;;;;0.00;0.00;;;0.30;99.90;;;;;;5035281;28;20052;-84
2021/03/07 08:24:50;;;;;;;0.00;0.00;;;0.40;99.90;;;;;;5048016;28;20091;-83
2021/03/07 08:27:35;;;;;;;0.00;0.00;;;0.60;99.90;;;;;;5047382;28;20180;-84
2021/03/07 08:30:03;;;;;;;0.00;0.00;;;0.60;99.90;;;;;;5060679;28;20365;-84
2021/03/07 08:32:31;;;;;;;0.00;0.00;;;0.80;99.90;;;;;;5047716;28;20099;-84
2021/03/07 08:35:21;;;;;;;0.00;0.00;;;1.00;99.90;;;;;;5065383;28;20044;-85
2021/03/07 08:38:09;;;;;;;0.00;0.00;;;1.00;99.90;;;;;;5057702;28;20041;-84
2021/03/07 08:40:37;;;;;;;0.10;0.10;;;1.10;99.90;;;;;;5056717;28;20040;-85
2021/03/07 08:43:24;;;;;;;0.00;0.00;;;1.20;99.90;;;;;;5063685;28;20033;-84
2021/03/07 08:46:03;;;;;;;0.00;0.00;;;1.20;99.90;;;;;;5047254;28;20187;-85
2021/03/07 08:48:30;;;;;;;0.00;0.00;;;1.40;99.90;;;;;;5047174;28;20044;-84
2021/03/07 08:50:57;;;;;;;0.00;0.00;;;1.50;99.90;;;;;;5024002;28;20039;-84
2021/03/07 08:53:24;;;;;;;0.00;0.00;;;1.70;99.90;;;;;;5030636;28;20163;-85
2021/03/07 08:55:50;;;;;;;0.00;0.00;;;1.80;99.90;;;;;;5030205;28;20059;-85
2021/03/07 08:58:20;;;;;;;0.00;0.00;;;1.90;99.90;;;;;;5047135;28;20048;-84
2021/03/07 09:00:47;;;;;;;0.00;0.00;;;2.10;99.90;;;;;;5047147;28;20111;-85
2021/03/07 09:03:14;;;;;;;0.00;0.00;;;2.30;99.90;;;;;;5030716;28;20034;-85
2021/03/07 09:06:21;;;;;;;0.00;0.00;;;2.50;99.90;;;;;;5045101;28;20041;-85
2021/03/07 09:08:48;;;;;;;0.00;0.00;;;2.50;99.90;;;;;;4968361;28;20051;-85
2021/03/07 09:11:14;;;;;;;0.00;0.00;;;2.50;99.90;;;;;;4974668;28;20047;-85
2021/03/07 09:13:47;;;;;;;0.00;0.00;;;2.60;99.90;;;;;;4987107;28;20133;-85
2021/03/07 09:16:14;;;;;;;0.00;0.00;;;2.70;99.90;;;;;;4991814;28;20081;-85
2021/03/07 09:18:40;;;;;;;0.00;0.00;;;2.70;99.90;;;;;;4985312;28;20038;-85
2021/03/07 09:21:08;;;;;;;0.00;0.00;;;2.70;99.90;;;;;;4991504;28;20050;-84
2021/03/07 09:23:43;;;;;;;0.00;0.00;;;2.70;99.90;;;;;;4984233;28;20069;-87
2021/03/07 09:26:22;;;;;;;0.00;0.00;;;2.80;99.90;;;;;;4991694;28;20046;-87
2021/03/07 09:28:54;;;;;;;0.00;0.00;;;2.90;99.90;;;;;;4972707;28;20074;-85
2021/03/07 09:31:24;;;;;;;0.00;0.00;;;3.00;99.90;;;;;;4955771;28;20193;-87
2021/03/07 09:33:54;;;;;;;0.00;0.00;;;3.00;99.90;;;;;;4971906;28;20065;-87
2021/03/07 09:36:22;;;;;;;0.25;0.20;;;3.20;99.90;;;;;;4988497;28;20138;-88
2021/03/07 09:38:52;;;;;;;0.00;0.00;;;3.30;99.90;;;;;;4988493;28;20031;-88
2021/03/07 09:41:28;;;;;;;0.00;0.00;;;3.40;99.90;;;;;;4972273;28;20050;-89
2021/03/07 09:43:56;;;;;;;0.00;0.00;;;3.50;99.90;;;;;;4972513;28;20039;-89
2021/03/07 09:46:23;;;;;;;0.00;0.00;;;3.60;99.90;;;;;;5039831;28;20037;-89
2021/03/07 09:49:00;;;;;;;0.00;0.00;;;3.80;99.90;;;;;;5035040;28;20082;-89
2021/03/07 09:51:32;;;;;;;22.73;0.70;;;3.90;99.90;;;;;;5034773;28;20128;-90
2021/03/07 09:53:59;;;;;;;0.00;0.00;;;3.90;99.90;;;;;;5034796;28;20063;-89
2021/03/07 09:56:33;;;;;;;0.00;0.00;;;4.00;99.90;;;;;;5034679;28;20044;-90
2021/03/07 09:59:18;;;;;;;0.00;0.00;;;4.00;99.90;;;;;;5034721;28;20052;-90
2021/03/07 10:01:49;;;;;;;0.00;0.00;;;4.00;99.90;;;;;;5049802;28;20052;-88
2021/03/07 10:04:26;;;;;;;0.00;0.00;;;3.80;99.90;;;;;;5065564;28;20037;-90
2021/03/07 10:06:52;;;;;;;0.00;0.00;;;4.10;99.90;;;;;;5050146;28;20098;-88
2021/03/07 10:09:18;;;;;;;0.00;0.00;;;4.70;99.90;;;;;;5069840;28;20052;-89
2021/03/07 10:12:04;;;;;;;0.00;0.00;;;4.90;99.90;;;;;;5054108;28;20051;-89
2021/03/07 10:14:32;;;;;;;0.00;0.00;;;5.00;99.90;;;;;;5049437;28;20619;-89
2021/03/07 10:16:58;;;;;;;0.00;0.00;;;5.00;99.90;;;;;;5052486;28;20060;-89
2021/03/07 10:19:34;;;;;;;0.73;0.30;;;4.90;99.90;;;;;;5053492;28;20036;-89
2021/03/07 10:22:03;;;;;;;0.00;0.00;;;4.70;99.90;;;;;;5053447;28;20049;-90
2021/03/07 10:24:31;;;;;;;0.00;0.00;;;4.80;99.90;;;;;;5053299;28;20067;-90
2021/03/07 10:27:01;;;;;;;0.00;0.00;;;5.10;99.90;;;;;;5054911;28;20067;-90
2021/03/07 10:29:30;;;;;;;0.00;0.00;;;5.40;99.90;;;;;;5054335;28;20039;-90
2021/03/07 10:32:05;;;;;;;0.00;0.00;;;5.40;99.90;;;;;;5052985;28;20073;-90
2021/03/07 10:34:38;;;;;;;0.00;0.00;;;5.50;99.90;;;;;;5049892;28;20500;-89
2021/03/07 10:37:05;;;;;;;0.00;0.00;;;5.20;99.90;;;;;;5083380;28;20045;-89
2021/03/07 10:39:31;;;;;;;0.00;0.00;;;5.40;99.90;;;;;;5069885;28;20033;-90
2021/03/07 10:42:12;;;;;;;0.00;0.00;;;5.80;99.90;;;;;;5053130;28;20054;-90
2021/03/07 10:44:42;;;;;;;0.00;0.00;;;5.70;99.90;;;;;;5053093;28;20108;-91
2021/03/07 10:47:18;;;;;;;0.00;0.00;;;5.10;99.90;;;;;;5053040;28;20098;-90
2021/03/07 10:49:50;;;;;;;0.00;0.00;;;5.40;99.90;;;;;;5052806;28;20037;-90
2021/03/07 10:52:17;;;;;;;0.00;0.00;;;5.30;99.90;;;;;;5063313;28;20059;-91
2021/03/07 10:54:43;;;;;;;0.00;0.00;;;5.20;99.90;;;;;;5063072;28;20040;-90
2021/03/07 10:57:10;;;;;;;0.00;0.00;;;5.20;99.90;;;;;;5069688;28;20100;-90
2021/03/07 10:59:36;;;;;;;0.00;0.00;;;5.10;99.90;;;;;;5069229;28;20044;-91
2021/03/07 11:02:05;;;;;;;0.00;0.00;;;5.10;99.90;;;;;;5082370;28;20048;-91
2021/03/07 11:04:31;;;;;;;0.00;0.00;;;5.00;99.90;;;;;;5061426;28;20032;-91
2021/03/07 11:06:57;;;;;;;0.00;0.00;;;4.90;99.90;;;;;;5064960;28;20041;-90
2021/03/07 11:09:22;;;;;;;0.00;0.00;;;4.70;99.90;;;;;;5051646;28;20064;-91
2021/03/07 11:11:48;;;;;;;0.00;0.00;;;4.60;99.90;;;;;;5049340;28;20056;-91
2021/03/07 11:14:14;;;;;;;0.00;0.00;;;4.60;99.90;;;;;;5068787;28;20067;-91
2021/03/07 11:16:39;;;;;;;0.00;0.00;;;4.90;99.90;;;;;;5051415;28;20064;-92
2021/03/07 11:19:05;;;;;;;0.00;0.00;;;5.40;99.90;;;;;;5049357;28;20329;-91
2021/03/07 11:21:32;;;;;;;0.00;0.00;;;5.60;99.90;;;;;;5065401;28;20550;-92
2021/03/07 11:23:57;;;;;;;0.00;0.00;;;5.70;99.90;;;;;;5064491;28;20062;-92
2021/03/07 11:26:23;;;;;;;0.00;0.00;;;6.10;99.90;;;;;;5051843;28;20040;-88
2021/03/07 11:28:49;;;;;;;0.00;0.00;;;5.90;99.90;;;;;;5065505;28;20469;-91
2021/03/07 11:31:14;;;;;;;0.00;0.00;;;6.10;99.90;;;;;;5058405;28;20036;-91
2021/03/07 11:33:40;;;;;;;0.00;0.00;;;6.30;99.90;;;;;;5051981;28;20039;-90
2021/03/07 11:36:06;;;;;;;0.00;0.00;;;6.50;99.90;;;;;;5086135;28;20112;-90
2021/03/07 11:38:32;;;;;;;0.00;0.00;;;6.70;99.90;;;;;;5051897;28;20036;-92
2021/03/07 11:40:57;;;;;;;0.00;0.00;;;6.30;99.90;;;;;;5051473;28;20079;-92
2021/03/07 11:43:23;;;;;;;0.00;0.00;;;5.90;99.90;;;;;;5051856;28;20052;-90
2021/03/07 11:45:48;;;;;;;0.00;0.00;;;6.00;99.90;;;;;;5051528;28;20078;-89
2021/03/07 11:48:14;;;;;;;0.00;0.00;;;5.70;99.90;;;;;;5051759;28;20041;-88
2021/03/07 11:50:40;;;;;;;0.00;0.00;;;6.30;99.90;;;;;;5050684;28;20033;-89
2021/03/07 11:53:06;;;;;;;0.00;0.00;;;6.50;99.90;;;;;;5067457;28;20036;-89
2021/03/07 11:55:31;;;;;;;0.05;0.03;;;6.70;99.90;;;;;;5067378;28;20185;-88
2021/03/07 11:57:57;;;;;;;0.00;0.00;;;6.90;99.90;;;;;;5067680;28;20041;-89
2021/03/07 12:00:23;;;;;;;0.00;0.00;;;6.50;99.90;;;;;;5067025;28;20059;-88
2021/03/07 12:02:49;;;;;;;0.00;0.00;;;6.50;99.90;;;;;;5067308;28;20059;-89
2021/03/07 12:05:14;;;;;;;0.00;0.00;;;6.50;99.90;;;;;;5067804;28;20068;-89
2021/03/07 12:07:40;;;;;;;0.00;0.00;;;6.30;99.90;;;;;;5068693;28;20090;-89
2021/03/07 12:10:07;;;;;;;0.00;0.00;;;6.20;99.90;;;;;;5068218;28;20151;-86
2021/03/07 12:12:32;;;;;;;0.00;0.00;;;6.00;99.90;;;;;;5067945;28;20104;-87
2021/03/07 12:14:58;;;;;;;0.00;0.00;;;6.10;99.90;;;;;;5067507;28;20047;-87
2021/03/07 12:17:23;;;;;;;0.00;0.00;;;5.80;99.90;;;;;;5048050;28;20037;-87
2021/03/07 12:19:49;;;;;;;0.10;0.10;;;5.80;99.90;;;;;;5047805;28;20132;-86
2021/03/07 12:22:15;;;;;;;0.00;0.00;;;6.30;99.90;;;;;;5047905;28;20071;-87
2021/03/07 12:24:40;;;;;;;0.00;0.00;;;7.10;99.90;;;;;;5047788;28;20033;-87
2021/03/07 12:27:07;;;;;;;0.00;0.00;;;7.10;99.90;;;;;;5044813;28;20061;-87
2021/03/07 12:29:36;;;;;;;0.00;0.00;;;6.70;99.90;;;;;;5047353;28;20033;-86
2021/03/07 12:32:05;;;;;;;0.10;0.10;;;6.70;99.90;;;;;;5047653;28;20041;-86
2021/03/07 12:34:32;;;;;;;0.00;0.00;;;6.70;99.90;;;;;;5032328;28;20051;-87
2021/03/07 12:36:58;;;;;;;2.47;0.43;;;6.40;99.90;;;;;;5027508;28;20033;-86
2021/03/07 12:39:24;;;;;;;0.00;0.00;;;6.30;99.90;;;;;;5047502;28;20041;-87
2021/03/07 12:41:50;;;;;;;0.00;0.00;;;6.30;99.90;;;;;;5047406;28;20070;-87
2021/03/07 12:44:15;;;;;;;2.00;0.00;;;6.50;99.90;;;;;;5047675;28;20067;-87
2021/03/07 12:46:41;;;;;;;0.00;0.00;;;6.30;99.90;;;;;;5047253;28;20041;-87
2021/03/07 12:49:09;;;;;;;0.00;0.00;;;6.10;99.90;;;;;;5063930;28;20107;-87
2021/03/07 12:51:36;;;;;;;0.00;0.00;;;6.20;99.90;;;;;;5083338;28;20511;-87
2021/03/07 12:54:02;;;;;;;0.00;0.00;;;6.60;99.90;;;;;;5067619;28;20032;-87
2021/03/07 12:56:27;;;;;;;0.22;0.08;;;6.70;99.90;;;;;;5067357;28;20033;-87
2021/03/07 12:58:53;;;;;;;0.00;0.00;;;6.50;99.90;;;;;;5067466;28;20040;-86